Time;durP1;ratioP1;P1;durP2;ratioP2;P2;SDS_P1;SDS_P2;PMS_P1;PMS_P2;Temp;Humidity;BMP_temperature;BMP_pressure;BME280_temperature;BME280_humidity;BME280_pressure;Samples;Min_cycle;Max_cycle;Signal;HPM_P1;HPM_P2
2023/12/14 00:01:48;;;;;;;1.27;1.17;;;9.70;1.00;;;;;;5099134;28;20183;-40
2023/12/14 00:04:14;;;;;;;1.60;1.27;;;9.40;1.00;;;;;;5100636;28;20285;-40
2023/12/14 00:06:40;;;;;;;1.70;1.10;;;9.20;1.00;;;;;;5100514;28;20447;-41
2023/12/14 00:09:06;;;;;;;2.57;1.57;;;8.90;1.00;;;;;;5117850;28;20473;-41
2023/12/14 00:11:31;;;;;;;1.80;1.50;;;8.70;99.90;;;;;;5118671;28;20207;-40
2023/12/14 00:13:57;;;;;;;3.10;1.30;;;8.50;99.90;;;;;;5100087;28;20276;-40
2023/12/14 00:16:23;;;;;;;1.97;1.20;;;8.30;99.90;;;;;;5117631;28;20508;-45
2023/12/14 00:18:48;;;;;;;1.17;1.00;;;8.30;99.90;;;;;;5117272;28;20462;-42
2023/12/14 00:21:14;;;;;;;1.70;1.07;;;8.20;21.70;;;;;;5116257;28;20260;-40
2023/12/14 00:23:39;;;;;;;3.50;1.10;;;8.10;1.00;;;;;;5118203;28;20266;-39
2023/12/14 00:26:05;;;;;;;1.73;0.90;;;8.00;1.00;;;;;;5117887;28;20253;-43
2023/12/14 00:28:31;;;;;;;2.17;1.13;;;8.00;1.00;;;;;;5118120;28;20180;-41
2023/12/14 00:30:57;;;;;;;1.77;0.90;;;7.90;1.00;;;;;;5098709;28;20212;-40
2023/12/14 00:33:24;;;;;;;2.70;1.27;;;7.90;1.00;;;;;;5098852;28;20502;-40
2023/12/14 00:35:49;;;;;;;1.60;1.13;;;7.90;1.00;;;;;;5117398;28;20248;-41
2023/12/14 00:38:15;;;;;;;1.67;0.97;;;7.80;1.00;;;;;;5115432;28;20418;-41
2023/12/14 00:40:41;;;;;;;1.57;1.17;;;7.80;1.00;;;;;;5116322;28;20609;-45
2023/12/14 00:43:06;;;;;;;1.30;1.00;;;7.80;1.00;;;;;;5097932;28;20187;-40
2023/12/14 00:45:32;;;;;;;1.60;1.30;;;7.80;1.00;;;;;;5097784;28;20554;-41
2023/12/14 00:47:57;;;;;;;2.43;1.50;;;7.80;1.00;;;;;;5117504;28;20171;-39
2023/12/14 00:50:23;;;;;;;2.13;1.50;;;7.80;1.00;;;;;;5116719;28;20203;-41
2023/12/14 00:52:49;;;;;;;2.20;1.50;;;7.70;1.00;;;;;;5099370;28;20179;-39
2023/12/14 00:55:14;;;;;;;2.00;1.30;;;7.70;1.00;;;;;;5118203;28;20425;-44
2023/12/14 00:57:40;;;;;;;2.37;1.80;;;7.70;1.00;;;;;;5116904;28;20545;-41
2023/12/14 01:00:06;;;;;;;3.97;1.80;;;7.70;1.00;;;;;;5117446;28;20168;-41
2023/12/14 01:02:32;;;;;;;1.77;1.60;;;7.70;1.00;;;;;;5117684;28;20168;-40
2023/12/14 01:04:58;;;;;;;2.13;1.40;;;7.70;1.00;;;;;;5082306;28;20480;-44
2023/12/14 01:07:24;;;;;;;3.63;1.90;;;7.70;1.00;;;;;;5116475;28;20468;-41
2023/12/14 01:09:49;;;;;;;3.50;2.07;;;7.70;1.00;;;;;;5099098;28;20224;-41
2023/12/14 01:12:15;;;;;;;1.97;1.60;;;7.70;1.00;;;;;;5121903;28;20650;-40
2023/12/14 01:14:40;;;;;;;2.60;1.73;;;7.70;1.00;;;;;;5121806;28;20467;-40
2023/12/14 01:17:06;;;;;;;2.63;1.70;;;7.70;1.00;;;;;;5121935;28;20179;-40
2023/12/14 01:19:31;;;;;;;2.83;1.70;;;7.70;1.00;;;;;;5121444;28;20460;-45
2023/12/14 01:21:57;;;;;;;3.33;1.57;;;7.60;1.00;;;;;;5103484;28;20180;-42
2023/12/14 01:24:23;;;;;;;2.60;1.80;;;7.60;1.00;;;;;;5121100;28;20508;-41
2023/12/14 01:26:49;;;;;;;2.00;1.80;;;7.60;1.00;;;;;;5102616;28;20180;-41
2023/12/14 01:29:14;;;;;;;2.37;1.47;;;7.60;1.00;;;;;;5120442;28;20490;-39
2023/12/14 01:31:40;;;;;;;1.40;1.20;;;7.60;1.00;;;;;;5121843;28;20593;-42
2023/12/14 01:34:06;;;;;;;1.47;1.17;;;7.60;1.00;;;;;;5121183;28;20187;-41
2023/12/14 01:36:32;;;;;;;2.17;1.40;;;7.60;1.00;;;;;;5102427;28;20184;-40
2023/12/14 01:38:57;;;;;;;1.83;1.30;;;7.50;1.00;;;;;;5120755;28;20424;-39
2023/12/14 01:41:23;;;;;;;1.77;1.20;;;7.60;1.00;;;;;;5121026;28;20270;-39
2023/12/14 01:43:48;;;;;;;1.43;0.90;;;7.50;1.00;;;;;;5120440;28;20179;-42
2023/12/14 01:46:16;;;;;;;1.27;0.97;;;7.50;1.00;;;;;;5120976;28;20518;-40
2023/12/14 01:48:41;;;;;;;2.50;1.30;;;7.50;1.00;;;;;;5121145;28;20291;-42
2023/12/14 01:51:08;;;;;;;1.57;1.00;;;7.50;1.00;;;;;;5119926;28;20567;-41
2023/12/14 01:53:33;;;;;;;1.80;1.00;;;7.50;1.00;;;;;;5101399;28;20180;-41
2023/12/14 01:55:59;;;;;;;1.50;1.30;;;7.50;1.00;;;;;;5120185;28;20516;-40
2023/12/14 01:58:26;;;;;;;1.27;1.00;;;7.40;1.00;;;;;;5119639;28;20166;-39
2023/12/14 02:01:19;;;;;;;1.53;1.33;;;7.50;1.00;;;;;;5120810;28;20217;-41
2023/12/14 02:03:49;;;;;;;2.47;1.10;;;7.40;1.00;;;;;;5102338;28;20441;-49
2023/12/14 02:06:15;;;;;;;1.27;1.00;;;7.40;1.00;;;;;;5120179;28;20436;-41
2023/12/14 02:08:41;;;;;;;2.13;1.20;;;7.50;4.00;;;;;;5119862;28;20456;-39
2023/12/14 02:11:06;;;;;;;1.40;1.17;;;7.40;9.70;;;;;;5119868;28;20481;-41
2023/12/14 02:13:33;;;;;;;1.53;1.00;;;7.50;15.00;;;;;;5120446;28;20188;-41
2023/12/14 02:15:58;;;;;;;3.37;1.40;;;7.50;12.80;;;;;;5102574;28;20203;-39
2023/12/14 02:18:24;;;;;;;2.53;1.60;;;7.50;14.60;;;;;;5120284;28;20494;-39
2023/12/14 02:20:49;;;;;;;1.83;1.20;;;7.50;17.90;;;;;;5119789;28;20461;-40
2023/12/14 02:23:15;;;;;;;2.17;1.27;;;7.50;25.20;;;;;;5119753;28;20187;-39
2023/12/14 02:25:40;;;;;;;2.20;1.70;;;7.50;25.90;;;;;;5120056;28;20664;-40
2023/12/14 02:28:06;;;;;;;1.30;1.20;;;7.50;17.80;;;;;;5119289;28;20194;-40
2023/12/14 02:30:32;;;;;;;2.57;1.80;;;7.50;7.80;;;;;;5120392;28;20271;-39
2023/12/14 02:32:57;;;;;;;2.03;1.30;;;7.50;8.30;;;;;;5099936;28;20273;-41
2023/12/14 02:35:23;;;;;;;2.40;1.33;;;7.50;11.30;;;;;;5119700;28;20230;-40
2023/12/14 02:37:48;;;;;;;2.57;1.30;;;7.50;15.50;;;;;;5119738;28;20328;-40
2023/12/14 02:40:14;;;;;;;1.83;1.60;;;7.50;15.60;;;;;;5119661;28;20191;-41
2023/12/14 02:42:40;;;;;;;2.40;1.77;;;7.50;19.00;;;;;;5118842;28;20286;-42
2023/12/14 02:45:08;;;;;;;2.53;1.87;;;7.50;22.40;;;;;;5119512;28;20307;-43
2023/12/14 02:47:33;;;;;;;1.90;1.70;;;7.50;30.00;;;;;;5119803;28;20241;-39
2023/12/14 02:49:59;;;;;;;2.57;2.37;;;7.50;30.00;;;;;;5101229;28;20689;-39
2023/12/14 02:52:25;;;;;;;2.20;1.90;;;7.40;27.60;;;;;;5119410;28;20180;-40
2023/12/14 02:54:50;;;;;;;2.37;2.17;;;7.50;31.40;;;;;;5119999;28;20196;-42
2023/12/14 02:57:16;;;;;;;2.23;2.03;;;7.50;35.50;;;;;;5119376;28;20215;-42
2023/12/14 02:59:41;;;;;;;2.30;1.90;;;7.50;39.50;;;;;;5119261;28;20260;-40
2023/12/14 03:02:07;;;;;;;2.33;2.13;;;7.50;48.50;;;;;;5101693;28;20304;-40
2023/12/14 03:04:33;;;;;;;2.60;1.93;;;7.50;44.60;;;;;;5119253;28;20577;-40
2023/12/14 03:07:02;;;;;;;2.10;1.90;;;7.50;48.80;;;;;;5118982;28;20179;-41
2023/12/14 03:09:28;;;;;;;1.93;1.77;;;7.50;54.70;;;;;;5118710;28;20617;-40
2023/12/14 03:11:53;;;;;;;2.73;2.10;;;7.50;58.10;;;;;;5118667;28;20471;-42
2023/12/14 03:14:19;;;;;;;2.67;2.40;;;7.50;62.60;;;;;;5119245;28;20422;-39
2023/12/14 03:16:45;;;;;;;2.20;2.00;;;7.50;63.70;;;;;;5118939;28;20184;-40
2023/12/14 03:19:10;;;;;;;2.40;2.20;;;7.50;78.10;;;;;;5119071;28;20287;-41
2023/12/14 03:21:36;;;;;;;2.20;2.00;;;7.50;82.10;;;;;;5118142;28;20246;-41
2023/12/14 03:24:02;;;;;;;2.00;1.70;;;7.50;90.80;;;;;;5118284;28;20233;-40
2023/12/14 03:26:28;;;;;;;2.90;2.03;;;7.50;93.30;;;;;;5118269;28;20164;-41
2023/12/14 03:28:53;;;;;;;2.30;2.10;;;7.50;94.10;;;;;;5119012;28;20902;-40
2023/12/14 03:31:19;;;;;;;4.23;1.93;;;7.50;94.00;;;;;;5118436;28;20277;-40
2023/12/14 03:33:45;;;;;;;2.50;2.30;;;7.50;97.80;;;;;;5117137;28;20184;-41
2023/12/14 03:36:11;;;;;;;2.57;2.37;;;7.60;98.40;;;;;;5118772;28;20183;-39
2023/12/14 03:38:36;;;;;;;3.70;2.23;;;7.60;99.90;;;;;;5118754;28;20446;-42
2023/12/14 03:41:02;;;;;;;2.20;1.90;;;7.60;99.90;;;;;;5117383;28;20429;-40
2023/12/14 03:43:28;;;;;;;2.13;1.90;;;7.60;99.90;;;;;;5118092;28;20190;-40
2023/12/14 03:45:53;;;;;;;2.40;1.90;;;7.60;99.60;;;;;;5117397;28;20191;-40
2023/12/14 03:48:19;;;;;;;2.40;2.20;;;7.60;99.90;;;;;;5099942;28;20188;-40
2023/12/14 03:50:44;;;;;;;2.50;2.23;;;7.60;99.90;;;;;;5117181;28;20585;-39
2023/12/14 03:53:10;;;;;;;2.20;2.00;;;7.60;99.90;;;;;;5116946;28;20289;-42
2023/12/14 03:55:36;;;;;;;3.70;2.50;;;7.60;99.90;;;;;;5116661;28;20251;-40
2023/12/14 03:58:01;;;;;;;2.00;1.87;;;7.60;99.90;;;;;;5098351;28;20193;-42
2023/12/14 04:00:27;;;;;;;2.60;2.27;;;7.60;99.90;;;;;;5117321;28;20245;-42
2023/12/14 04:02:53;;;;;;;3.90;2.47;;;7.60;99.90;;;;;;5117407;28;20172;-40
2023/12/14 04:05:18;;;;;;;2.20;2.00;;;7.60;99.90;;;;;;5114952;28;20267;-42
2023/12/14 04:07:44;;;;;;;4.20;2.40;;;7.60;99.90;;;;;;5114317;28;20188;-41
2023/12/14 04:10:12;;;;;;;2.60;2.10;;;7.60;99.90;;;;;;5113448;28;20239;-39
2023/12/14 04:12:39;;;;;;;4.70;3.10;;;7.60;99.90;;;;;;5116290;28;20272;-40
2023/12/14 04:15:06;;;;;;;2.83;2.17;;;7.60;99.90;;;;;;5115732;28;20412;-40
2023/12/14 04:17:32;;;;;;;4.37;2.80;;;7.60;99.90;;;;;;5115802;28;20445;-40
2023/12/14 04:19:58;;;;;;;2.70;2.40;;;7.70;99.90;;;;;;5114442;28;20432;-40
2023/12/14 04:22:23;;;;;;;2.63;2.40;;;7.70;99.90;;;;;;5115941;28;20794;-39
2023/12/14 04:24:50;;;;;;;3.70;3.30;;;7.70;99.90;;;;;;5115452;28;20203;-40
2023/12/14 04:27:16;;;;;;;4.10;3.50;;;7.70;99.90;;;;;;5114979;28;20183;-40
2023/12/14 04:29:41;;;;;;;4.37;3.13;;;7.70;99.90;;;;;;5115935;28;20417;-39
2023/12/14 04:32:07;;;;;;;4.90;4.50;;;7.70;99.90;;;;;;5114476;28;20213;-48
2023/12/14 04:34:33;;;;;;;4.90;4.33;;;7.70;99.90;;;;;;5115330;28;20273;-39
2023/12/14 04:36:58;;;;;;;4.57;4.17;;;7.70;99.90;;;;;;5115045;28;20180;-39
2023/12/14 04:39:24;;;;;;;5.07;4.20;;;7.70;99.90;;;;;;5079623;28;20236;-40
2023/12/14 04:41:52;;;;;;;4.80;4.33;;;7.70;99.90;;;;;;5115299;28;20619;-42
2023/12/14 04:44:18;;;;;;;4.00;3.70;;;7.70;99.90;;;;;;5097138;28;20441;-40
2023/12/14 04:46:43;;;;;;;5.40;4.90;;;7.70;99.90;;;;;;5115183;28;20444;-39
2023/12/14 04:49:09;;;;;;;5.37;4.83;;;7.70;99.90;;;;;;5116636;28;20517;-41
2023/12/14 04:51:34;;;;;;;5.00;4.60;;;7.70;99.90;;;;;;5115357;28;20306;-39
2023/12/14 04:54:00;;;;;;;4.83;4.20;;;7.70;99.90;;;;;;5115093;28;20266;-40
2023/12/14 04:56:26;;;;;;;5.40;4.80;;;7.70;99.90;;;;;;5115082;28;20199;-41
2023/12/14 04:58:51;;;;;;;6.77;6.20;;;7.70;99.90;;;;;;5114047;28;20180;-40
2023/12/14 05:01:17;;;;;;;7.27;6.57;;;7.70;99.90;;;;;;5114454;28;20274;-41
2023/12/14 05:03:43;;;;;;;7.27;6.67;;;7.70;99.90;;;;;;5113106;28;20184;-40
2023/12/14 05:06:09;;;;;;;8.13;7.33;;;7.70;99.90;;;;;;5095789;28;20176;-38
2023/12/14 05:08:34;;;;;;;8.70;7.90;;;7.70;99.90;;;;;;5114907;28;20429;-39
2023/12/14 05:11:00;;;;;;;7.33;6.63;;;7.70;99.90;;;;;;5115921;28;20242;-43
2023/12/14 05:13:25;;;;;;;7.87;7.10;;;7.70;99.90;;;;;;5115859;28;20230;-40
2023/12/14 05:15:52;;;;;;;7.27;6.63;;;7.70;99.90;;;;;;5117111;28;20209;-41
2023/12/14 05:18:18;;;;;;;7.67;6.87;;;7.70;99.90;;;;;;5115524;28;20184;-41
2023/12/14 05:20:45;;;;;;;7.10;6.40;;;7.70;99.90;;;;;;5114502;28;20448;-40
2023/12/14 05:23:11;;;;;;;6.40;5.80;;;7.70;99.90;;;;;;5114560;28;20830;-40
2023/12/14 05:25:37;;;;;;;6.50;5.90;;;7.70;99.90;;;;;;5080237;28;20483;-41
2023/12/14 05:28:02;;;;;;;6.90;6.20;;;7.70;99.90;;;;;;5115526;28;20520;-44
2023/12/14 05:30:29;;;;;;;6.47;5.87;;;7.70;99.90;;;;;;5115500;28;20211;-40
2023/12/14 05:32:54;;;;;;;7.93;7.20;;;7.70;99.90;;;;;;5115274;28;20432;-41
2023/12/14 05:35:20;;;;;;;7.10;6.37;;;7.70;99.90;;;;;;5115085;28;20747;-40
2023/12/14 05:37:45;;;;;;;6.50;5.93;;;7.70;99.90;;;;;;5111764;28;20191;-40
2023/12/14 05:40:11;;;;;;;7.57;6.77;;;7.70;99.90;;;;;;5095976;28;20191;-40
2023/12/14 05:42:37;;;;;;;7.13;6.50;;;7.60;99.90;;;;;;5115287;28;20188;-42
2023/12/14 05:45:04;;;;;;;8.83;6.80;;;7.60;99.90;;;;;;5114825;28;20266;-42
2023/12/14 05:47:34;;;;;;;8.53;7.73;;;7.60;99.90;;;;;;5114064;28;20804;-43
2023/12/14 05:50:00;;;;;;;8.93;8.23;;;7.60;99.90;;;;;;5114105;28;20517;-41
2023/12/14 05:52:25;;;;;;;9.70;8.80;;;7.60;99.90;;;;;;5114636;28;20580;-43
2023/12/14 05:54:51;;;;;;;9.07;8.27;;;7.60;99.90;;;;;;5079684;28;20723;-43
2023/12/14 05:57:17;;;;;;;8.90;8.10;;;7.70;99.90;;;;;;5115210;28;20192;-41
2023/12/14 05:59:42;;;;;;;8.27;7.57;;;7.70;99.90;;;;;;5115529;28;20168;-43
2023/12/14 06:02:08;;;;;;;8.67;7.90;;;7.70;99.90;;;;;;5117407;28;20188;-40
2023/12/14 06:04:34;;;;;;;7.73;6.80;;;7.70;99.90;;;;;;5116976;28;20236;-40
2023/12/14 06:07:00;;;;;;;7.23;6.60;;;7.70;99.90;;;;;;5097152;28;20433;-41
2023/12/14 06:09:33;;;;;;;6.13;5.63;;;7.70;99.90;;;;;;5115769;28;20304;-42
2023/12/14 06:12:02;;;;;;;6.53;5.93;;;7.70;99.90;;;;;;5115364;28;20320;-41
2023/12/14 06:14:28;;;;;;;5.80;5.27;;;7.70;99.90;;;;;;5097655;28;20445;-42
2023/12/14 06:16:55;;;;;;;6.00;5.40;;;7.70;99.90;;;;;;5116712;28;20453;-43
2023/12/14 06:19:21;;;;;;;5.17;4.60;;;7.70;99.90;;;;;;5096911;28;20422;-42
2023/12/14 06:21:47;;;;;;;4.77;4.37;;;7.70;99.90;;;;;;5116143;28;20180;-42
2023/12/14 06:24:13;;;;;;;4.70;4.10;;;7.70;99.90;;;;;;5082747;28;20179;-42
2023/12/14 06:26:43;;;;;;;4.93;4.43;;;7.70;99.90;;;;;;5099899;28;20819;-42
2023/12/14 06:29:10;;;;;;;3.80;3.50;;;7.70;99.90;;;;;;5118327;28;20426;-41
2023/12/14 06:31:37;;;;;;;5.70;4.30;;;7.70;99.90;;;;;;5082096;28;20484;-43
2023/12/14 06:34:03;;;;;;;4.40;4.00;;;7.70;99.90;;;;;;5099677;28;20421;-41
2023/12/14 06:36:32;;;;;;;4.30;3.90;;;7.70;99.90;;;;;;5116616;28;20495;-41
2023/12/14 06:38:59;;;;;;;7.07;4.70;;;7.70;99.90;;;;;;5114441;28;21028;-41
2023/12/14 06:41:25;;;;;;;5.87;5.37;;;7.70;99.90;;;;;;5097737;28;20784;-41
2023/12/14 06:43:51;;;;;;;4.40;3.77;;;7.70;99.90;;;;;;5114721;28;20421;-39
2023/12/14 06:46:17;;;;;;;3.60;3.30;;;7.70;99.90;;;;;;5115461;28;20817;-41
2023/12/14 06:48:43;;;;;;;5.43;3.87;;;7.70;99.90;;;;;;5116503;28;20429;-42
2023/12/14 06:51:09;;;;;;;3.90;3.50;;;7.70;99.90;;;;;;5097834;28;20477;-42
2023/12/14 06:53:37;;;;;;;4.50;4.00;;;7.80;99.90;;;;;;5114294;28;20315;-40
2023/12/14 06:56:03;;;;;;;4.80;4.33;;;7.80;99.90;;;;;;5117599;28;20207;-40
2023/12/14 06:58:29;;;;;;;3.80;3.50;;;7.80;99.90;;;;;;5098122;28;20676;-41
2023/12/14 07:00:54;;;;;;;4.50;3.57;;;7.80;99.90;;;;;;5116827;28;20452;-41
2023/12/14 07:03:20;;;;;;;5.17;4.53;;;7.80;99.90;;;;;;5116619;28;20311;-39
2023/12/14 07:05:45;;;;;;;4.37;3.90;;;7.80;99.90;;;;;;5115523;28;20553;-40
2023/12/14 07:08:12;;;;;;;4.47;4.00;;;7.80;99.90;;;;;;5114133;28;20261;-39
2023/12/14 07:10:38;;;;;;;5.30;4.50;;;7.80;99.90;;;;;;5114877;28;20605;-41
2023/12/14 07:13:04;;;;;;;5.10;4.10;;;7.80;99.90;;;;;;5115410;28;20433;-40
2023/12/14 07:15:29;;;;;;;4.53;4.10;;;7.80;99.90;;;;;;5116512;28;20191;-41
2023/12/14 07:17:55;;;;;;;4.90;4.20;;;7.80;99.90;;;;;;5116107;28;20474;-40
2023/12/14 07:20:21;;;;;;;4.90;4.10;;;7.80;99.90;;;;;;5116048;28;20209;-41
2023/12/14 07:22:47;;;;;;;4.77;3.90;;;7.80;99.90;;;;;;5096397;28;20581;-40
2023/12/14 07:25:12;;;;;;;5.67;4.50;;;7.80;99.90;;;;;;5111291;28;20429;-41
2023/12/14 07:27:38;;;;;;;5.87;4.50;;;7.80;99.90;;;;;;5110385;28;20244;-42
2023/12/14 07:30:04;;;;;;;4.43;4.03;;;7.80;99.90;;;;;;5113055;28;20197;-45
2023/12/14 07:32:29;;;;;;;5.53;3.70;;;7.80;99.90;;;;;;5112236;28;20215;-43
2023/12/14 07:34:55;;;;;;;4.17;3.60;;;7.80;99.90;;;;;;5079599;28;21037;-40
2023/12/14 07:37:21;;;;;;;6.23;5.13;;;7.80;99.90;;;;;;5114733;28;20573;-40
2023/12/14 07:39:46;;;;;;;5.63;4.33;;;7.80;99.90;;;;;;5113015;28;20236;-42
2023/12/14 07:42:15;;;;;;;6.70;4.57;;;7.80;99.90;;;;;;5095914;28;20479;-40
2023/12/14 07:44:40;;;;;;;5.03;4.33;;;7.80;99.90;;;;;;5113482;28;20259;-41
2023/12/14 07:47:07;;;;;;;5.60;5.07;;;7.80;99.90;;;;;;5114944;28;20425;-40
2023/12/14 07:49:32;;;;;;;4.33;3.93;;;7.80;99.90;;;;;;5115588;28;20437;-40
2023/12/14 07:51:58;;;;;;;4.37;3.60;;;7.90;99.90;;;;;;5116436;28;20322;-39
2023/12/14 07:54:26;;;;;;;4.50;4.10;;;7.90;99.90;;;;;;5117369;28;20179;-45
2023/12/14 07:56:52;;;;;;;3.77;3.37;;;7.90;99.90;;;;;;5116105;28;20248;-41
2023/12/14 07:59:17;;;;;;;3.90;3.50;;;8.00;99.90;;;;;;5116133;28;20433;-40
2023/12/14 08:01:43;;;;;;;3.90;3.60;;;7.90;99.90;;;;;;5114188;28;20215;-41
2023/12/14 08:04:11;;;;;;;4.40;4.00;;;8.10;99.90;;;;;;5097905;28;20195;-41
2023/12/14 08:06:39;;;;;;;3.80;3.13;;;8.20;99.90;;;;;;5098314;28;20203;-40
2023/12/14 08:09:05;;;;;;;3.40;3.10;;;8.30;99.90;;;;;;5113387;28;20789;-42
2023/12/14 08:11:34;;;;;;;4.77;3.40;;;8.30;99.90;;;;;;5114599;28;20461;-41
2023/12/14 08:14:00;;;;;;;4.10;3.13;;;8.40;99.90;;;;;;5113235;28;20441;-43
2023/12/14 08:16:26;;;;;;;5.43;4.07;;;8.50;99.90;;;;;;5115224;28;20543;-42
2023/12/14 08:18:51;;;;;;;4.07;3.43;;;8.50;99.90;;;;;;5115882;28;20704;-42
2023/12/14 08:21:18;;;;;;;3.83;3.10;;;8.60;99.90;;;;;;5098392;28;20207;-42
2023/12/14 08:23:44;;;;;;;3.80;3.30;;;8.70;94.70;;;;;;5094189;28;20272;-40
2023/12/14 08:26:11;;;;;;;3.63;3.33;;;8.70;85.40;;;;;;5114438;28;20827;-42
2023/12/14 08:28:37;;;;;;;4.13;3.73;;;8.80;39.70;;;;;;5114084;28;20184;-40
2023/12/14 08:31:04;;;;;;;4.07;3.67;;;8.90;8.90;;;;;;5115447;28;20472;-41
2023/12/14 08:33:29;;;;;;;3.87;3.47;;;8.90;1.00;;;;;;5114990;28;20187;-41
2023/12/14 08:35:55;;;;;;;3.80;3.40;;;9.00;1.00;;;;;;5094755;28;20414;-42
2023/12/14 08:38:21;;;;;;;3.87;3.10;;;9.00;1.00;;;;;;5095212;28;20164;-43
2023/12/14 08:40:47;;;;;;;5.63;3.63;;;9.10;1.00;;;;;;5094433;28;21122;-41
2023/12/14 08:43:12;;;;;;;4.37;3.90;;;9.10;1.00;;;;;;5094152;28;20188;-41
2023/12/14 08:45:38;;;;;;;4.47;3.57;;;9.20;1.00;;;;;;5094900;28;20185;-45
2023/12/14 08:48:04;;;;;;;4.43;3.50;;;9.40;1.00;;;;;;5077541;28;20201;-40
2023/12/14 08:50:30;;;;;;;4.47;3.73;;;9.60;1.00;;;;;;5076569;28;20578;-41
2023/12/14 08:52:58;;;;;;;4.60;3.87;;;9.70;1.00;;;;;;5095216;28;20730;-42
2023/12/14 08:55:24;;;;;;;5.00;3.90;;;9.80;1.00;;;;;;5058351;28;20184;-40
2023/12/14 08:57:50;;;;;;;4.37;2.90;;;10.00;1.00;;;;;;5055985;28;20525;-40
2023/12/14 09:00:17;;;;;;;5.43;3.03;;;10.20;57.90;;;;;;5056305;28;20523;-42
2023/12/14 09:02:45;;;;;;;3.73;3.17;;;10.40;99.90;;;;;;5092277;28;20472;-40
2023/12/14 09:05:14;;;;;;;6.03;4.10;;;10.50;99.90;;;;;;5072821;28;20442;-40
2023/12/14 09:07:40;;;;;;;4.47;3.53;;;10.70;99.90;;;;;;5090266;28;20531;-42
2023/12/14 09:10:06;;;;;;;5.07;3.20;;;10.90;99.90;;;;;;5093168;28;20478;-39
2023/12/14 09:12:34;;;;;;;4.20;3.70;;;11.10;99.90;;;;;;5092931;28;20223;-39
2023/12/14 09:15:00;;;;;;;5.67;3.10;;;11.20;99.90;;;;;;5093254;28;20739;-39
2023/12/14 09:17:26;;;;;;;3.70;3.00;;;11.30;99.90;;;;;;5093698;28;20403;-40
2023/12/14 09:19:51;;;;;;;4.10;3.60;;;11.50;99.90;;;;;;5095714;28;20445;-42
2023/12/14 09:22:17;;;;;;;6.30;3.37;;;11.60;99.90;;;;;;5095554;28;20430;-42
2023/12/14 09:24:43;;;;;;;3.97;3.27;;;11.70;99.90;;;;;;5094278;28;20192;-42
2023/12/14 09:27:08;;;;;;;3.87;3.40;;;11.70;99.90;;;;;;5092404;28;20282;-42
2023/12/14 09:29:34;;;;;;;8.93;3.50;;;11.70;99.90;;;;;;5091628;28;20177;-40
2023/12/14 09:31:59;;;;;;;4.50;3.40;;;11.80;99.90;;;;;;5096278;28;20222;-41
2023/12/14 09:34:25;;;;;;;5.17;3.30;;;11.80;99.90;;;;;;5096159;28;20259;-41
2023/12/14 09:36:51;;;;;;;4.10;3.70;;;11.90;99.90;;;;;;5098735;28;20184;-40
2023/12/14 09:39:19;;;;;;;4.20;3.80;;;12.00;99.90;;;;;;5099962;28;20554;-43
2023/12/14 09:41:46;;;;;;;5.00;4.20;;;11.90;1.00;;;;;;5097564;28;20508;-40
2023/12/14 09:44:11;;;;;;;5.63;4.33;;;11.80;1.00;;;;;;5098019;28;20422;-41
2023/12/14 09:46:38;;;;;;;5.40;4.20;;;11.60;99.90;;;;;;5098603;28;20442;-41
2023/12/14 09:49:07;;;;;;;5.33;4.70;;;11.40;99.90;;;;;;5100261;28;20192;-41
2023/12/14 09:51:33;;;;;;;5.27;4.77;;;11.30;99.90;;;;;;5099543;28;20485;-41
2023/12/14 09:53:59;;;;;;;5.60;4.30;;;11.30;55.50;;;;;;5100225;28;20510;-41
2023/12/14 09:56:25;;;;;;;4.90;4.30;;;11.30;9.60;;;;;;5099485;28;20600;-43
2023/12/14 09:58:52;;;;;;;4.40;4.00;;;11.30;1.00;;;;;;5098536;28;20181;-41
2023/12/14 10:01:27;;;;;;;8.33;4.77;;;11.40;1.00;;;;;;5097731;28;20448;-44
2023/12/14 10:04:12;;;;;;;4.40;4.00;;;11.40;1.00;;;;;;5096856;28;20444;-40
2023/12/14 10:06:39;;;;;;;5.00;4.60;;;11.60;1.00;;;;;;5099248;28;20458;-40
2023/12/14 10:09:09;;;;;;;4.90;4.50;;;11.80;1.00;;;;;;5098171;28;20466;-44
2023/12/14 10:11:37;;;;;;;5.50;4.77;;;12.00;99.90;;;;;;5098414;28;20465;-42
2023/12/14 10:14:09;;;;;;;3.60;3.30;;;12.20;99.90;;;;;;5098689;28;20428;-41
2023/12/14 10:16:35;;;;;;;3.50;3.20;;;12.30;1.00;;;;;;5078135;28;20469;-41
2023/12/14 10:19:01;;;;;;;5.03;3.80;;;12.40;1.00;;;;;;5098232;28;20431;-41
2023/12/14 10:21:27;;;;;;;2.63;2.40;;;12.40;99.90;;;;;;5079886;28;20192;-42
2023/12/14 10:23:55;;;;;;;5.30;3.83;;;12.30;99.90;;;;;;5097336;28;20188;-43
2023/12/14 10:26:24;;;;;;;4.30;3.30;;;12.20;99.90;;;;;;5097553;28;20450;-41
2023/12/14 10:28:51;;;;;;;5.43;4.07;;;12.10;1.00;;;;;;5097023;28;20437;-39
2023/12/14 10:31:18;;;;;;;4.27;3.70;;;12.10;1.00;;;;;;5097307;28;20568;-40
2023/12/14 10:33:44;;;;;;;4.70;3.80;;;12.10;1.00;;;;;;5097147;28;20753;-40
2023/12/14 10:36:09;;;;;;;4.73;4.20;;;12.20;1.00;;;;;;5097289;28;20454;-41
2023/12/14 10:38:38;;;;;;;3.50;3.20;;;12.50;99.90;;;;;;5097847;28;20287;-40
2023/12/14 10:41:04;;;;;;;3.87;3.47;;;12.80;99.90;;;;;;5079726;28;20425;-40
2023/12/14 10:43:32;;;;;;;4.27;3.93;;;13.20;1.00;;;;;;5095227;28;20421;-40
2023/12/14 10:45:59;;;;;;;4.90;3.57;;;13.60;99.90;;;;;;5097925;28;20754;-40
2023/12/14 10:48:24;;;;;;;6.13;3.70;;;13.90;99.90;;;;;;5097589;28;20470;-41
2023/12/14 10:50:51;;;;;;;5.07;3.37;;;14.00;1.00;;;;;;5096736;28;20542;-42
2023/12/14 10:53:17;;;;;;;3.63;3.33;;;14.10;74.80;;;;;;5078952;28;20204;-41
2023/12/14 10:55:44;;;;;;;5.57;3.50;;;14.10;99.90;;;;;;5097349;28;20427;-42
2023/12/14 10:58:10;;;;;;;4.30;3.90;;;14.20;99.90;;;;;;5062050;28;20218;-40
2023/12/14 11:00:37;;;;;;;3.53;3.23;;;14.20;1.00;;;;;;5095903;28;20430;-40
2023/12/14 11:03:04;;;;;;;4.30;3.50;;;14.20;6.00;;;;;;5096639;28;20437;-39
2023/12/14 11:05:36;;;;;;;4.10;3.77;;;14.30;1.00;;;;;;5096078;28;20764;-39
2023/12/14 11:08:12;;;;;;;5.80;3.77;;;14.40;1.00;;;;;;5096940;28;20517;-41
2023/12/14 11:10:43;;;;;;;3.40;3.10;;;14.80;1.00;;;;;;5096102;28;20891;-40
2023/12/14 11:13:13;;;;;;;6.70;3.60;;;15.80;82.40;;;;;;5094991;28;20470;-41
2023/12/14 11:15:40;;;;;;;4.27;2.97;;;16.70;99.90;;;;;;5091661;28;20428;-40
2023/12/14 11:18:28;;;;;;;3.00;2.30;;;17.90;99.90;;;;;;5115104;28;20738;-40
2023/12/14 11:20:55;;;;;;;2.87;2.57;;;19.40;1.00;;;;;;5116270;28;20405;-41
2023/12/14 11:23:31;;;;;;;3.50;2.40;;;21.30;1.00;;;;;;5114936;28;20512;-40
2023/12/14 11:26:03;;;;;;;3.73;2.90;;;22.90;1.00;;;;;;5116540;28;20479;-45
2023/12/14 11:28:30;;;;;;;3.33;2.80;;;22.80;1.00;;;;;;5117231;28;20429;-42
2023/12/14 11:30:55;;;;;;;3.50;2.73;;;22.10;1.00;;;;;;5114296;28;20473;-39
2023/12/14 11:33:21;;;;;;;3.40;3.10;;;21.30;1.00;;;;;;5099097;28;20433;-40
2023/12/14 11:35:47;;;;;;;4.40;2.93;;;20.40;1.00;;;;;;5098988;28;20175;-40
2023/12/14 11:38:13;;;;;;;3.90;2.50;;;19.50;1.00;;;;;;5116713;28;20984;-40
2023/12/14 11:40:45;;;;;;;4.10;2.33;;;18.80;1.00;;;;;;5115871;28;20207;-42
2023/12/14 11:43:12;;;;;;;3.10;2.30;;;18.10;1.00;;;;;;5098373;28;20500;-39
2023/12/14 11:45:39;;;;;;;4.00;2.10;;;17.60;1.00;;;;;;5115460;28;20655;-39
2023/12/14 11:48:10;;;;;;;2.00;1.70;;;17.20;1.00;;;;;;5115786;28;20413;-40
2023/12/14 11:50:37;;;;;;;4.43;1.87;;;16.80;1.00;;;;;;5117133;28;20481;-39
2023/12/14 11:53:03;;;;;;;2.73;1.90;;;16.30;1.00;;;;;;5096441;28;20421;-40
2023/12/14 11:55:30;;;;;;;1.87;1.67;;;15.90;1.00;;;;;;5115519;28;20433;-39
2023/12/14 11:57:56;;;;;;;2.60;1.70;;;15.40;1.00;;;;;;5114894;28;20688;-41
2023/12/14 12:00:26;;;;;;;2.10;1.90;;;15.00;1.00;;;;;;5096458;28;20489;-39
2023/12/14 12:02:51;;;;;;;2.07;1.80;;;14.60;1.00;;;;;;5114634;28;20734;-39
2023/12/14 12:05:20;;;;;;;1.93;1.73;;;14.30;1.00;;;;;;5096988;28;20425;-41
2023/12/14 12:07:46;;;;;;;2.00;1.80;;;14.00;1.00;;;;;;5116161;28;20220;-40
2023/12/14 12:10:12;;;;;;;1.70;1.50;;;13.80;17.70;;;;;;5114017;28;20541;-38
2023/12/14 12:12:38;;;;;;;3.07;2.00;;;13.70;56.50;;;;;;5078796;28;20211;-39
2023/12/14 12:15:04;;;;;;;1.77;1.53;;;13.70;96.70;;;;;;5097623;28;20414;-42
2023/12/14 12:17:37;;;;;;;2.37;1.47;;;13.90;99.90;;;;;;5097015;28;20672;-40
2023/12/14 12:20:06;;;;;;;2.40;1.73;;;14.10;97.80;;;;;;5116289;28;20418;-40
2023/12/14 12:22:32;;;;;;;2.97;2.60;;;14.20;93.10;;;;;;5112462;28;20444;-42
2023/12/14 12:24:58;;;;;;;2.27;1.90;;;14.20;77.40;;;;;;5115803;28;20835;-40
2023/12/14 12:27:23;;;;;;;2.20;2.00;;;14.10;82.70;;;;;;5114176;28;20849;-42
2023/12/14 12:29:53;;;;;;;3.30;3.00;;;14.00;99.90;;;;;;5114321;28;20414;-41
2023/12/14 12:32:19;;;;;;;3.03;2.30;;;14.00;99.90;;;;;;5114530;28;20195;-41
2023/12/14 12:34:44;;;;;;;3.30;1.87;;;13.80;99.90;;;;;;5114381;28;20691;-45
2023/12/14 12:37:10;;;;;;;12.93;2.40;;;13.80;99.90;;;;;;5112475;28;20176;-43
2023/12/14 12:39:35;;;;;;;11.83;2.27;;;15.00;99.90;;;;;;5094904;28;20168;-43
2023/12/14 12:42:02;;;;;;;10.27;2.17;;;16.00;1.00;;;;;;5113510;28;20183;-44
2023/12/14 12:44:28;;;;;;;4.23;2.00;;;16.70;99.90;;;;;;5114927;28;20492;-45
2023/12/14 12:46:57;;;;;;;2.07;1.87;;;17.10;1.00;;;;;;5093752;28;20428;-46
2023/12/14 12:49:22;;;;;;;6.30;2.50;;;17.40;1.00;;;;;;5112223;28;20458;-46
2023/12/14 12:51:48;;;;;;;5.07;2.20;;;17.70;1.00;;;;;;5110122;28;20775;-43
2023/12/14 12:54:14;;;;;;;5.53;2.23;;;18.10;1.00;;;;;;5093159;28;20339;-46